sensor_id;sensor_type;location;lat;lon;timestamp;P1;durP1;ratioP1;P2;durP2;ratioP2
59689;SDS011;45557;50.298;18.930;2022-10-16T00:00:15;16.40;;;11.80;;
59689;SDS011;45557;50.298;18.930;2022-10-16T00:07:05;16.00;;;11.60;;
59689;SDS011;45557;50.298;18.930;2022-10-16T00:13:49;17.70;;;11.70;;
59689;SDS011;45557;50.298;18.930;2022-10-16T00:20:35;16.10;;;12.30;;
59689;SDS011;45557;50.298;18.930;2022-10-16T00:27:49;16.70;;;11.80;;
59689;SDS011;45557;50.298;18.930;2022-10-16T00:34:38;19.50;;;12.90;;
59689;SDS011;45557;50.298;18.930;2022-10-16T00:41:31;18.70;;;12.90;;
59689;SDS011;45557;50.298;18.930;2022-10-16T00:48:38;18.30;;;13.40;;
59689;SDS011;45557;50.298;18.930;2022-10-16T00:55:50;18.80;;;12.50;;
59689;SDS011;45557;50.298;18.930;2022-10-16T01:02:35;19.00;;;13.80;;
59689;SDS011;45557;50.298;18.930;2022-10-16T01:09:21;20.70;;;13.60;;
59689;SDS011;45557;50.298;18.930;2022-10-16T01:16:04;18.80;;;14.10;;
59689;SDS011;45557;50.298;18.930;2022-10-16T01:29:37;18.30;;;13.00;;
59689;SDS011;45557;50.298;18.930;2022-10-16T01:36:29;17.00;;;12.00;;
59689;SDS011;45557;50.298;18.930;2022-10-16T01:43:14;19.30;;;13.50;;
59689;SDS011;45557;50.298;18.930;2022-10-16T01:49:54;19.30;;;13.40;;
59689;SDS011;45557;50.298;18.930;2022-10-16T01:56:36;18.20;;;12.00;;
59689;SDS011;45557;50.298;18.930;2022-10-16T02:03:18;20.40;;;14.00;;
59689;SDS011;45557;50.298;18.930;2022-10-16T02:10:00;20.60;;;13.60;;
59689;SDS011;45557;50.298;18.930;2022-10-16T02:16:45;19.60;;;14.30;;
59689;SDS011;45557;50.298;18.930;2022-10-16T02:30:25;20.30;;;14.30;;
59689;SDS011;45557;50.298;18.930;2022-10-16T02:37:10;23.20;;;16.50;;
59689;SDS011;45557;50.298;18.930;2022-10-16T02:43:53;22.40;;;16.80;;
59689;SDS011;45557;50.298;18.930;2022-10-16T02:50:37;23.50;;;16.60;;
59689;SDS011;45557;50.298;18.930;2022-10-16T02:57:20;22.50;;;14.60;;
59689;SDS011;45557;50.298;18.930;2022-10-16T03:04:04;20.50;;;13.80;;
59689;SDS011;45557;50.298;18.930;2022-10-16T03:10:47;21.30;;;15.00;;
59689;SDS011;45557;50.298;18.930;2022-10-16T03:17:31;19.60;;;13.90;;
59689;SDS011;45557;50.298;18.930;2022-10-16T03:24:15;19.90;;;13.70;;
59689;SDS011;45557;50.298;18.930;2022-10-16T03:30:58;19.70;;;13.90;;
59689;SDS011;45557;50.298;18.930;2022-10-16T03:37:42;19.70;;;13.40;;
59689;SDS011;45557;50.298;18.930;2022-10-16T03:44:25;18.90;;;13.60;;
59689;SDS011;45557;50.298;18.930;2022-10-16T03:51:08;21.00;;;14.80;;
59689;SDS011;45557;50.298;18.930;2022-10-16T03:57:50;22.70;;;15.80;;
59689;SDS011;45557;50.298;18.930;2022-10-16T04:04:34;22.20;;;15.40;;
59689;SDS011;45557;50.298;18.930;2022-10-16T04:11:17;23.20;;;13.20;;
59689;SDS011;45557;50.298;18.930;2022-10-16T04:18:00;18.70;;;12.60;;
59689;SDS011;45557;50.298;18.930;2022-10-16T04:24:43;17.00;;;12.30;;
59689;SDS011;45557;50.298;18.930;2022-10-16T04:31:27;22.50;;;14.90;;
59689;SDS011;45557;50.298;18.930;2022-10-16T04:38:12;21.00;;;14.00;;
59689;SDS011;45557;50.298;18.930;2022-10-16T04:44:55;18.60;;;12.40;;
59689;SDS011;45557;50.298;18.930;2022-10-16T04:51:38;20.80;;;13.70;;
59689;SDS011;45557;50.298;18.930;2022-10-16T04:58:21;23.00;;;14.30;;
59689;SDS011;45557;50.298;18.930;2022-10-16T05:05:05;19.60;;;12.80;;
59689;SDS011;45557;50.298;18.930;2022-10-16T05:11:48;22.40;;;14.10;;
59689;SDS011;45557;50.298;18.930;2022-10-16T05:18:31;20.90;;;14.70;;
59689;SDS011;45557;50.298;18.930;2022-10-16T05:25:14;19.60;;;13.30;;
59689;SDS011;45557;50.298;18.930;2022-10-16T05:31:57;21.10;;;15.40;;
59689;SDS011;45557;50.298;18.930;2022-10-16T05:38:40;21.10;;;15.60;;
59689;SDS011;45557;50.298;18.930;2022-10-16T05:45:23;26.90;;;17.10;;
59689;SDS011;45557;50.298;18.930;2022-10-16T05:52:07;22.10;;;17.00;;
59689;SDS011;45557;50.298;18.930;2022-10-16T05:58:50;24.50;;;16.60;;
59689;SDS011;45557;50.298;18.930;2022-10-16T06:05:33;23.10;;;16.70;;
59689;SDS011;45557;50.298;18.930;2022-10-16T06:12:17;23.20;;;17.50;;
59689;SDS011;45557;50.298;18.930;2022-10-16T06:19:00;24.00;;;16.70;;
59689;SDS011;45557;50.298;18.930;2022-10-16T06:25:43;23.20;;;15.80;;
59689;SDS011;45557;50.298;18.930;2022-10-16T06:32:30;22.80;;;15.80;;
59689;SDS011;45557;50.298;18.930;2022-10-16T06:39:27;32.90;;;21.70;;
59689;SDS011;45557;50.298;18.930;2022-10-16T06:46:10;20.70;;;15.00;;
59689;SDS011;45557;50.298;18.930;2022-10-16T06:53:03;22.50;;;14.00;;
59689;SDS011;45557;50.298;18.930;2022-10-16T06:59:51;22.40;;;15.50;;
59689;SDS011;45557;50.298;18.930;2022-10-16T07:06:51;17.80;;;12.80;;
59689;SDS011;45557;50.298;18.930;2022-10-16T07:13:42;18.20;;;13.40;;
59689;SDS011;45557;50.298;18.930;2022-10-16T07:20:27;17.70;;;11.80;;
59689;SDS011;45557;50.298;18.930;2022-10-16T07:27:14;21.00;;;12.50;;
59689;SDS011;45557;50.298;18.930;2022-10-16T07:33:54;15.50;;;11.10;;
59689;SDS011;45557;50.298;18.930;2022-10-16T07:40:38;17.10;;;12.00;;
59689;SDS011;45557;50.298;18.930;2022-10-16T07:47:23;16.30;;;11.20;;
59689;SDS011;45557;50.298;18.930;2022-10-16T07:54:08;16.50;;;11.60;;
59689;SDS011;45557;50.298;18.930;2022-10-16T08:00:52;18.20;;;11.50;;
59689;SDS011;45557;50.298;18.930;2022-10-16T08:07:37;14.50;;;10.00;;
59689;SDS011;45557;50.298;18.930;2022-10-16T08:13:45;15.30;;;9.80;;
59689;SDS011;45557;50.298;18.930;2022-10-16T08:20:39;12.40;;;8.50;;
59689;SDS011;45557;50.298;18.930;2022-10-16T08:27:25;12.00;;;8.70;;
59689;SDS011;45557;50.298;18.930;2022-10-16T08:34:12;17.50;;;10.60;;
59689;SDS011;45557;50.298;18.930;2022-10-16T08:54:55;14.80;;;9.60;;
59689;SDS011;45557;50.298;18.930;2022-10-16T09:01:45;16.10;;;10.70;;
59689;SDS011;45557;50.298;18.930;2022-10-16T09:21:13;69.30;;;31.70;;
59689;SDS011;45557;50.298;18.930;2022-10-16T09:27:56;54.50;;;29.20;;
59689;SDS011;45557;50.298;18.930;2022-10-16T09:34:43;34.10;;;19.90;;
59689;SDS011;45557;50.298;18.930;2022-10-16T09:41:23;34.90;;;19.40;;
59689;SDS011;45557;50.298;18.930;2022-10-16T09:47:30;22.60;;;13.80;;
59689;SDS011;45557;50.298;18.930;2022-10-16T09:54:15;26.30;;;15.30;;
59689;SDS011;45557;50.298;18.930;2022-10-16T10:01:01;18.60;;;10.60;;
59689;SDS011;45557;50.298;18.930;2022-10-16T10:07:44;14.40;;;9.70;;
59689;SDS011;45557;50.298;18.930;2022-10-16T10:14:31;16.80;;;9.30;;
59689;SDS011;45557;50.298;18.930;2022-10-16T10:21:13;14.30;;;10.20;;
59689;SDS011;45557;50.298;18.930;2022-10-16T10:34:37;11.30;;;7.50;;
59689;SDS011;45557;50.298;18.930;2022-10-16T10:54:20;12.90;;;8.30;;
59689;SDS011;45557;50.298;18.930;2022-10-16T11:18:21;12.90;;;8.60;;
59689;SDS011;45557;50.298;18.930;2022-10-16T11:31:19;11.20;;;7.80;;
59689;SDS011;45557;50.298;18.930;2022-10-16T11:37:42;12.50;;;9.20;;
59689;SDS011;45557;50.298;18.930;2022-10-16T11:43:17;12.30;;;7.80;;
59689;SDS011;45557;50.298;18.930;2022-10-16T12:00:07;13.10;;;9.30;;
59689;SDS011;45557;50.298;18.930;2022-10-16T12:05:48;14.10;;;9.50;;
59689;SDS011;45557;50.298;18.930;2022-10-16T12:11:37;14.60;;;9.00;;
59689;SDS011;45557;50.298;18.930;2022-10-16T12:17:04;14.40;;;9.20;;
59689;SDS011;45557;50.298;18.930;2022-10-16T12:23:24;13.70;;;9.70;;
59689;SDS011;45557;50.298;18.930;2022-10-16T12:30:15;13.50;;;9.40;;
59689;SDS011;45557;50.298;18.930;2022-10-16T12:35:44;12.50;;;8.10;;
59689;SDS011;45557;50.298;18.930;2022-10-16T12:41:08;12.90;;;8.70;;
59689;SDS011;45557;50.298;18.930;2022-10-16T12:52:28;22.00;;;15.90;;
59689;SDS011;45557;50.298;18.930;2022-10-16T13:11:35;11.30;;;7.80;;
59689;SDS011;45557;50.298;18.930;2022-10-16T13:18:02;12.20;;;8.90;;
59689;SDS011;45557;50.298;18.930;2022-10-16T13:24:20;12.10;;;8.60;;
59689;SDS011;45557;50.298;18.930;2022-10-16T13:30:21;14.10;;;10.40;;
59689;SDS011;45557;50.298;18.930;2022-10-16T13:36:00;13.90;;;9.40;;
59689;SDS011;45557;50.298;18.930;2022-10-16T13:48:15;11.50;;;8.50;;
59689;SDS011;45557;50.298;18.930;2022-10-16T13:53:38;11.50;;;7.60;;
59689;SDS011;45557;50.298;18.930;2022-10-16T14:04:44;11.40;;;7.50;;
59689;SDS011;45557;50.298;18.930;2022-10-16T14:10:22;11.40;;;8.70;;
59689;SDS011;45557;50.298;18.930;2022-10-16T14:15:48;14.20;;;8.70;;
59689;SDS011;45557;50.298;18.930;2022-10-16T14:21:13;13.20;;;9.00;;
59689;SDS011;45557;50.298;18.930;2022-10-16T14:26:43;13.50;;;9.20;;
59689;SDS011;45557;50.298;18.930;2022-10-16T14:32:22;13.60;;;8.80;;
59689;SDS011;45557;50.298;18.930;2022-10-16T14:37:51;12.60;;;9.20;;
59689;SDS011;45557;50.298;18.930;2022-10-16T14:43:22;11.60;;;8.80;;
59689;SDS011;45557;50.298;18.930;2022-10-16T14:49:17;12.50;;;8.50;;
59689;SDS011;45557;50.298;18.930;2022-10-16T14:54:43;11.30;;;8.50;;
59689;SDS011;45557;50.298;18.930;2022-10-16T15:00:16;11.40;;;8.40;;
59689;SDS011;45557;50.298;18.930;2022-10-16T15:05:41;11.30;;;8.70;;
59689;SDS011;45557;50.298;18.930;2022-10-16T15:11:03;11.50;;;8.00;;
59689;SDS011;45557;50.298;18.930;2022-10-16T15:16:26;11.50;;;8.80;;
59689;SDS011;45557;50.298;18.930;2022-10-16T15:21:47;12.50;;;9.60;;
59689;SDS011;45557;50.298;18.930;2022-10-16T15:27:10;14.10;;;9.70;;
59689;SDS011;45557;50.298;18.930;2022-10-16T15:32:34;14.50;;;10.00;;
59689;SDS011;45557;50.298;18.930;2022-10-16T15:37:56;14.20;;;9.30;;
59689;SDS011;45557;50.298;18.930;2022-10-16T15:43:18;14.00;;;9.90;;
59689;SDS011;45557;50.298;18.930;2022-10-16T15:48:43;18.40;;;11.70;;
59689;SDS011;45557;50.298;18.930;2022-10-16T15:54:04;17.00;;;11.60;;
59689;SDS011;45557;50.298;18.930;2022-10-16T15:59:27;16.10;;;11.60;;
59689;SDS011;45557;50.298;18.930;2022-10-16T16:04:49;15.00;;;11.20;;
59689;SDS011;45557;50.298;18.930;2022-10-16T16:10:11;17.40;;;12.80;;
59689;SDS011;45557;50.298;18.930;2022-10-16T16:15:34;15.30;;;11.70;;
59689;SDS011;45557;50.298;18.930;2022-10-16T16:20:55;17.80;;;12.50;;
59689;SDS011;45557;50.298;18.930;2022-10-16T16:26:22;17.20;;;13.30;;
59689;SDS011;45557;50.298;18.930;2022-10-16T16:31:47;60.40;;;40.60;;
59689;SDS011;45557;50.298;18.930;2022-10-16T16:37:09;21.90;;;14.00;;
59689;SDS011;45557;50.298;18.930;2022-10-16T16:42:31;19.70;;;13.70;;
59689;SDS011;45557;50.298;18.930;2022-10-16T16:47:52;20.00;;;14.00;;
59689;SDS011;45557;50.298;18.930;2022-10-16T16:53:14;17.50;;;12.30;;
59689;SDS011;45557;50.298;18.930;2022-10-16T16:58:37;21.20;;;14.20;;
59689;SDS011;45557;50.298;18.930;2022-10-16T17:03:59;19.30;;;14.30;;
59689;SDS011;45557;50.298;18.930;2022-10-16T17:09:22;22.90;;;15.60;;
59689;SDS011;45557;50.298;18.930;2022-10-16T17:14:45;33.40;;;25.50;;
59689;SDS011;45557;50.298;18.930;2022-10-16T17:20:07;24.80;;;18.10;;
59689;SDS011;45557;50.298;18.930;2022-10-16T17:25:30;23.00;;;16.10;;
59689;SDS011;45557;50.298;18.930;2022-10-16T17:36:16;24.70;;;17.40;;
59689;SDS011;45557;50.298;18.930;2022-10-16T17:41:39;23.10;;;16.90;;
59689;SDS011;45557;50.298;18.930;2022-10-16T17:47:01;20.30;;;15.70;;
59689;SDS011;45557;50.298;18.930;2022-10-16T17:52:23;22.50;;;14.80;;
59689;SDS011;45557;50.298;18.930;2022-10-16T17:57:45;22.90;;;17.30;;
59689;SDS011;45557;50.298;18.930;2022-10-16T18:03:08;23.40;;;16.50;;
59689;SDS011;45557;50.298;18.930;2022-10-16T18:08:29;26.90;;;17.60;;
59689;SDS011;45557;50.298;18.930;2022-10-16T18:13:52;27.50;;;18.80;;
59689;SDS011;45557;50.298;18.930;2022-10-16T18:19:15;25.60;;;16.70;;
59689;SDS011;45557;50.298;18.930;2022-10-16T18:24:37;25.00;;;18.50;;
59689;SDS011;45557;50.298;18.930;2022-10-16T18:29:59;28.00;;;19.10;;
59689;SDS011;45557;50.298;18.930;2022-10-16T18:35:21;27.10;;;20.10;;
59689;SDS011;45557;50.298;18.930;2022-10-16T18:40:43;27.60;;;20.20;;
59689;SDS011;45557;50.298;18.930;2022-10-16T18:46:07;27.50;;;19.50;;
59689;SDS011;45557;50.298;18.930;2022-10-16T18:51:36;27.40;;;20.90;;
59689;SDS011;45557;50.298;18.930;2022-10-16T18:57:00;34.40;;;22.00;;
59689;SDS011;45557;50.298;18.930;2022-10-16T19:02:22;32.00;;;20.50;;
59689;SDS011;45557;50.298;18.930;2022-10-16T19:07:45;30.10;;;20.40;;
59689;SDS011;45557;50.298;18.930;2022-10-16T19:13:09;30.10;;;21.50;;
59689;SDS011;45557;50.298;18.930;2022-10-16T19:18:31;28.50;;;21.60;;
59689;SDS011;45557;50.298;18.930;2022-10-16T19:23:59;30.00;;;21.80;;
59689;SDS011;45557;50.298;18.930;2022-10-16T19:29:22;23.20;;;16.50;;
59689;SDS011;45557;50.298;18.930;2022-10-16T19:34:48;27.50;;;18.50;;
59689;SDS011;45557;50.298;18.930;2022-10-16T19:40:11;23.30;;;16.90;;
59689;SDS011;45557;50.298;18.930;2022-10-16T19:45:33;23.10;;;17.50;;
59689;SDS011;45557;50.298;18.930;2022-10-16T19:50:55;26.10;;;18.30;;
59689;SDS011;45557;50.298;18.930;2022-10-16T19:56:18;27.60;;;20.20;;
59689;SDS011;45557;50.298;18.930;2022-10-16T20:01:43;27.90;;;20.30;;
59689;SDS011;45557;50.298;18.930;2022-10-16T20:07:06;28.80;;;20.00;;
59689;SDS011;45557;50.298;18.930;2022-10-16T20:12:28;37.60;;;26.00;;
59689;SDS011;45557;50.298;18.930;2022-10-16T20:17:50;27.70;;;20.10;;
59689;SDS011;45557;50.298;18.930;2022-10-16T20:23:12;31.80;;;20.30;;
59689;SDS011;45557;50.298;18.930;2022-10-16T20:28:34;30.80;;;21.80;;
59689;SDS011;45557;50.298;18.930;2022-10-16T20:33:57;30.40;;;21.20;;
59689;SDS011;45557;50.298;18.930;2022-10-16T20:39:22;28.10;;;20.80;;
59689;SDS011;45557;50.298;18.930;2022-10-16T20:44:44;29.00;;;20.50;;
59689;SDS011;45557;50.298;18.930;2022-10-16T20:50:11;27.90;;;19.30;;
59689;SDS011;45557;50.298;18.930;2022-10-16T20:55:35;28.50;;;20.70;;
59689;SDS011;45557;50.298;18.930;2022-10-16T21:01:08;32.70;;;21.40;;
59689;SDS011;45557;50.298;18.930;2022-10-16T21:06:32;24.10;;;18.00;;
59689;SDS011;45557;50.298;18.930;2022-10-16T21:11:56;28.50;;;18.70;;
59689;SDS011;45557;50.298;18.930;2022-10-16T21:17:18;25.80;;;19.10;;
59689;SDS011;45557;50.298;18.930;2022-10-16T21:22:40;28.00;;;20.20;;
59689;SDS011;45557;50.298;18.930;2022-10-16T21:28:02;26.60;;;18.90;;
59689;SDS011;45557;50.298;18.930;2022-10-16T21:33:29;30.00;;;20.10;;
59689;SDS011;45557;50.298;18.930;2022-10-16T21:38:53;28.50;;;20.30;;
59689;SDS011;45557;50.298;18.930;2022-10-16T21:44:16;29.30;;;18.90;;
59689;SDS011;45557;50.298;18.930;2022-10-16T21:49:44;24.80;;;18.40;;
59689;SDS011;45557;50.298;18.930;2022-10-16T21:55:07;25.30;;;20.10;;
59689;SDS011;45557;50.298;18.930;2022-10-16T22:00:32;25.90;;;19.00;;
59689;SDS011;45557;50.298;18.930;2022-10-16T22:05:59;29.50;;;22.10;;
59689;SDS011;45557;50.298;18.930;2022-10-16T22:11:30;28.20;;;19.40;;
59689;SDS011;45557;50.298;18.930;2022-10-16T22:16:57;27.60;;;20.50;;
59689;SDS011;45557;50.298;18.930;2022-10-16T22:22:19;25.10;;;19.00;;
59689;SDS011;45557;50.298;18.930;2022-10-16T22:27:42;28.80;;;20.60;;
59689;SDS011;45557;50.298;18.930;2022-10-16T22:33:04;27.80;;;21.00;;
59689;SDS011;45557;50.298;18.930;2022-10-16T22:38:30;28.10;;;21.90;;
59689;SDS011;45557;50.298;18.930;2022-10-16T22:44:51;29.90;;;21.00;;
59689;SDS011;45557;50.298;18.930;2022-10-16T22:51:21;28.90;;;21.30;;
59689;SDS011;45557;50.298;18.930;2022-10-16T22:57:03;27.50;;;20.50;;
59689;SDS011;45557;50.298;18.930;2022-10-16T23:03:46;28.30;;;20.70;;
59689;SDS011;45557;50.298;18.930;2022-10-16T23:09:52;28.90;;;20.80;;
59689;SDS011;45557;50.298;18.930;2022-10-16T23:15:52;26.50;;;19.50;;
59689;SDS011;45557;50.298;18.930;2022-10-16T23:21:39;28.90;;;20.90;;
59689;SDS011;45557;50.298;18.930;2022-10-16T23:27:28;26.50;;;19.30;;
59689;SDS011;45557;50.298;18.930;2022-10-16T23:33:37;25.10;;;18.10;;
59689;SDS011;45557;50.298;18.930;2022-10-16T23:40:07;26.10;;;19.40;;
59689;SDS011;45557;50.298;18.930;2022-10-16T23:46:36;29.70;;;20.00;;
59689;SDS011;45557;50.298;18.930;2022-10-16T23:53:15;27.40;;;22.20;;
59689;SDS011;45557;50.298;18.930;2022-10-16T23:59:40;28.60;;;21.40;;
